NWS Home NWS Lubbock West Texas Mesonet Central Sector Latest Conditions as of 1211 AM, Fri Jul 20, 2018

Latest   N   C   S   Daily Sum   3hrΔ   24hrΔ   Soil Data 
Site Map   24hr Precip   72hr Precip   Google Plot


Station Time of Last Temp Dew Pt. RH Wind Direction Wind Speed Wind Gust Max Wind Max Temp Min Temp Max RH Min RH Altimeter 1HR Rain Today's Rain Solar Rad
Abernathy 5ENE  12:05 AM 82 48 31% SE1113 13 mph 157° @ 1205 AM 82 82 31 31 29.99" 0 0.00 0
Aiken 3WSW  12:05 AM 78 52 40% S67 7 mph 160° @ 1201 AM 79 78 40 38 30.01" 0 0.00 0
Amherst 1NE  12:05 AM 80 44 29% S78 8 mph 171° @ 1205 AM 80 80 29 29 30.01" 0 0.00 0
Anton 6SSW  12:05 AM 79 44 30% S78 8 mph 180° @ 1205 AM 79 79 30 30 29.99" 0 0.00 0
Aspermont 3NE  12:05 AM 91 54 29% SE912 12 mph 146° @ 1205 AM 91 91 29 29 29.89" 0 0.00 0
Bootleg 11WNW  12:05 AM 79 50 36% SE1214 16 mph 120° @ 1202 AM 80 79 36 35 30.11" 0 0.00 0
Brownfield 2S  12:05 AM 85 45 25% SW910 10 mph 204° @ 1205 AM 85 85 25 25 30.00" 0 0.00 0
Caprock Canyons State Park  12:05 AM 89 44 22% W56 10 mph 229° @ 1202 AM 89 88 22 22 29.94" 0 0.00 0
Childress 2NNE  12:05 AM 90 47 23% S1113 13 mph 186° @ 1205 AM 90 90 23 23 29.87" 0 0.00 0
Clarendon 2WSW  12:05 AM 80 52 38% SE910 10 mph 122° @ 1205 AM 80 80 38 38 29.95" 0 0.00 0
Claude 12SW  12:05 AM 78 54 43% E99 10 mph 81° @ 1203 AM 78 78 45 43 30.00" 0 0.00 0
Crowell 1E  12:05 AM 90 53 28% S910 10 mph 194° @ 1204 AM 90 90 28 28 29.85" 0 0.00 0
Denver City 7WNW  12:05 AM 79 41 27% S1012 12 mph 178° @ 1205 AM 79 79 27 27 30.01" 0 0.00 0
Dimmitt 2NE  12:05 AM 81 48 33% E1113 13 mph 86° @ 1205 AM 81 81 33 33 30.05" 0 0.00 0
Dora NM 2SW  12:05 AM 79 42 27% S1213 13 mph 179° @ 1205 AM 79 79 27 27 30.06" 0 0.00 0
Earth 9WSW  12:05 AM 81 47 30% S1011 11 mph 174° @ 1203 AM 82 81 30 29 30.03" 0 0.00 0
Estelline 3SSE  12:05 AM 89 50 27% S67 9 mph 189° @ 1201 AM 89 89 27 26 29.87" 0 0.00 0
Floydada 2NNE  12:05 AM 82 48 31% SE912 12 mph 151° @ 1205 AM 82 82 31 31 29.98" 0 0.00 0
Fluvanna 3WNW  12:05 AM 89 45 22% SE1315 15 mph 142° @ 1205 AM 89 89 22 22 29.96" 0 0.00 0
Friona 2NE  12:05 AM 79 51 40% E810 10 mph 93° @ 1205 AM 79 79 40 40 30.07" 0 0.00 0
Gail 2ESE  12:05 AM 88 47 25% SE811 11 mph 145° @ 1205 AM 88 88 25 25 29.94" 0 0.00 0
Goodlett 3W  12:05 AM 90 45 22% S710 10 mph 199° @ 1205 AM 90 90 22 22 29.84" 0 0.00 0
Graham 5SSW  12:05 AM 89 46 23% SE913 13 mph 145° @ 1205 AM 89 89 23 23 29.97" 0 0.00 0
Guthrie 10WSW  12:05 AM 89 47 25% SE1011 11 mph 150° @ 1205 AM 89 89 25 25 29.89" 0 0.00 0
Happy 1E  12:05 AM 74 53 47% SE77 8 mph 153° @ 1204 AM 74 74 47 46 30.02" 0 0.00 0
Hart 3N  12:05 AM 79 47 32% NE911 11 mph 38° @ 1205 AM 79 79 32 32 30.04" 0 0.00 0
Haskell 1NW  12:05 AM 91 51 26% S913 13 mph 166° @ 1205 AM 91 91 26 26 29.88" 0 0.00 0
Hereford 2NW  12:05 AM 84 46 27% SE79 9 mph 141° @ 1205 AM 84 84 27 27 30.03" 0 0.00 0
Hobbs NM 5NW  12:05 AM 84 38 19% S1011 13 mph 173° @ 1204 AM 85 84 19 19 30.05" 0 0.00 0
Jayton 1SSE  12:05 AM 89 49 26% SE811 11 mph 136° @ 1205 AM 89 89 26 26 29.90" 0 0.00 0
Knox City 3NW  12:05 AM 93 56 30% S1417 17 mph 167° @ 1205 AM 93 93 30 30 29.86" 0 0.00 0
Lake Alan Henry 1NW  12:05 AM 90 50 26% S46 6 mph 179° @ 1205 AM 90 90 27 26 29.92" 0 0.00 0
Lamesa 2SE  12:05 AM 86 48 27% S1014 14 mph 163° @ 1205 AM 86 86 27 27 29.98" 0 0.00 0
Lesley 2S  12:05 AM 89 52 29% N77 8 mph 335° @ 1204 AM 89 89 29 29 29.90" 0 0.00 0
Levelland 4S  12:05 AM 77 47 36% S89 9 mph 170° @ 1205 AM 77 77 36 36 30.01" 0 0.00 0
Lubbock 3WNW TTU  12:05 AM 87 45 24% S69 9 mph 168° @ 1205 AM 87 87 24 24 29.99" 0 0.00 0
Memphis 1NE  12:05 AM 91 49 24% NW79 9 mph 318° @ 1205 AM 91 91 24 24 29.90" 0 0.00 0
Morton 1ENE  12:05 AM 82 42 25% S911 11 mph 185° @ 1205 AM 82 82 25 25 30.02" 0 0.00 0
Muleshoe 2SSW  12:05 AM 79 48 34% S79 9 mph 160° @ 1205 AM 79 79 34 34 30.03" 0 0.00 0
New Home  12:05 AM 86 49 27% SE79 10 mph 151° @ 1202 AM 87 86 27 27 30.00" 0 0.00 0
Northfield 1S  12:05 AM 87 47 25% S1113 13 mph 178° @ 1205 AM 87 87 25 25 29.88" 0 0.00 0
O'Donnell 1N  12:05 AM 83 47 30% S57 7 mph 187° @ 1205 AM 83 83 30 30 29.98" 0 0.00 0
Odell 4ENE  12:05 AM 94 50 23% S1114 18 mph 186° @ 1201 AM 94 94 23 22 29.83" 0 0.00 0
Olton 6S  12:05 AM 81 44 27% S99 9 mph 161° @ 1205 AM 81 81 27 27 30.01" 0 0.00 0
Paducah 10SW  12:05 AM 87 47 26% SW1011 11 mph 207° @ 1205 AM 87 87 26 26 29.89" 0 0.00 0
Palo Duro 4E (JA Ranch)  12:05 AM 75 57 53% SW22 2 mph 219° @ 1204 AM 75 75 53 53 29.93" 0 0.00 0
Palo Duro Canyon SP Floor  12:05 AM 85 55 35% N00 3 mph 76° @ 1201 AM 85 85 35 34 29.96" 0 0.00 0
Palo Duro Canyon State Park Rim  12:05 AM 82 52 35% SW45 5 mph 218° @ 1205 AM 83 82 35 35 30.02" 0 0.00 0
Plains 3N  12:05 AM 84 42 24% S1012 12 mph 169° @ 1205 AM 84 84 24 24 30.02" 0 0.00 0
Plainview 1S  12:05 AM 83 48 30% SE46 6 mph 143° @ 1205 AM 83 83 30 30 30.00" 0 0.00 0
Post 1NE  12:05 AM 89 45 22% S810 10 mph 174° @ 1205 AM 89 89 22 22 29.94" 0 0.00 0
Ralls 1SE  12:05 AM 82 48 32% SE910 10 mph 146° @ 1205 AM 82 82 32 32 29.99" 0 0.00 0
Reese Center  12:05 AM 81 44 28% S77 7 mph 177° @ 1205 AM 81 81 28 28 29.99" 0 0.00 0
Roaring Springs 3N  12:05 AM 81 51 36% S911 11 mph 199° @ 1205 AM 81 81 36 36 29.94" 0 0.00 0
Rotan 5W  12:05 AM 88 52 29% S1012 12 mph 168° @ 1205 AM 88 87 30 29 29.92" 0 0.00 0
Seagraves 1SW  12:05 AM 81 47 31% S78 8 mph 193° @ 1205 AM 81 81 31 31 30.00" 0 0.00 0
Seminole 2NNE  12:05 AM 84 43 24% S1215 15 mph 175° @ 1205 AM 84 84 24 24 29.99" 0 0.00 0
Seymour 3NW  12:05 AM 92 56 31% S911 11 mph 166° @ 1205 AM 92 92 31 31 29.85" 0 0.00 0
Silverton 7ESE  12:00 AM 78 46 34% NW47 0 mph 0° @ 0600 PM 32 32 0 0 29.99" 0 0.00 0
Slaton 2NE  12:05 AM 83 46 27% S1113 13 mph 168° @ 1205 AM 83 83 27 27 29.98" 0 0.00 0
Snyder 3E  12:05 AM 87 50 29% SE1112 12 mph 139° @ 1205 AM 87 87 29 29 29.93" 0 0.00 0
Snyder 3SSW  12:05 AM 87 53 31% S89 10 mph 158° @ 1203 AM 87 87 32 31 29.94" 0 0.00 0
Spur 1W  12:05 AM 86 46 26% S46 6 mph 180° @ 1205 AM 86 86 26 26 29.91" 0 0.00 0
Stamford 5ESE  12:05 AM 90 58 34% S1316 16 mph 166° @ 1205 AM 90 90 35 34 29.89" 0 0.00 0
Sundown 8WSW  12:05 AM 81 43 27% S1113 13 mph 177° @ 1205 AM 81 81 27 27 30.01" 0 0.00 0
Tahoka 3NNE  12:05 AM 84 47 28% SE911 11 mph 154° @ 1201 AM 84 84 28 28 29.98" 0 0.00 0
Tatum NM 2SW  12:05 AM 75 41 30% S911 11 mph 184° @ 1205 AM 75 75 30 30 30.05" 0 0.00 0
Throckmorton 1SW  12:05 AM 92 58 32% S1115 15 mph 181° @ 1205 AM 92 92 32 32 29.88" 0 0.00 0
Tulia 2ENE  12:05 AM 82 51 35% SE23 3 mph 144° @ 1205 AM 82 82 35 35 30.02" 0 0.00 0
Turkey 2WSW  12:05 AM 85 49 30% S910 10 mph 185° @ 1205 AM 85 85 30 30 29.91" 0 0.00 0
Umbarger 3NNE  12:05 AM 78 54 44% SE89 10 mph 136° @ 1201 AM 78 78 44 44 30.03" 0 0.00 0
Vigo Park  12:05 AM 80 53 39% NE78 9 mph 60° @ 1201 AM 81 80 39 38 30.01" 0 0.00 0
Weinert 2NNE  12:05 AM 93 57 30% S1721 23 mph 173° @ 1203 AM 93 93 30 30 29.87" 0 0.00 0
Welch  12:05 AM 81 50 33% S1313 13 mph 162° @ 1205 AM 81 81 34 33 29.99" 0 0.00 0
White River Lake 6NW  12:05 AM 87 47 25% SE46 6 mph 139° @ 1205 AM 87 87 25 25 29.95" 0 0.00 0
Wolfforth 6SSW  12:05 AM 81 48 32% S79 9 mph 168° @ 1205 AM 81 81 32 32 30.00" 0 0.00 0

West Texas Mesonet Home   Site Map/Menu  NWS Lubbock Soil Data  Daily Summary Page  24hr Precip  72hr Precip  Google Plot